Wetterdaten für den Flughafen Lübeck Blankensee


ADDS - METARS form results Aviation Digital Data Service (ADDS) Output produced by METARs form (0826 UTC 13 December 2018)
found at http://www.aviationweather.gov/metar/data/
 
EDHL 130750Z 07004KT 9999 SCT013 01/M00 Q1026
TAF EDHL 130800Z 1309/1318 07007KT 9999 BKN020

Nord: Hamburg, Lübeck
Ost: Schwerin, Rostock
Süd: Hannover
West: Bremen, Nordhloz

 

Copyright © 2016 Flugschule Hohensee